Time;durP1;ratioP1;P1;durP2;ratioP2;P2;SDS_P1;SDS_P2;PMS_P1;PMS_P2;Temp;Humidity;BMP_temperature;BMP_pressure;BME280_temperature;BME280_humidity;BME280_pressure;Samples;Min_cycle;Max_cycle;Signal;HPM_P1;HPM_P2
2022/11/09 00:00:40;;;;;;;4.82;2.25;;;;;;;10.94;100.00;100270.53;4856118;29;20056;-82
2022/11/09 00:03:07;;;;;;;3.28;2.25;;;;;;;11.04;99.38;100272.91;4862675;29;20064;-81
2022/11/09 00:05:33;;;;;;;2.85;2.20;;;;;;;10.97;100.00;100273.09;4862254;29;20111;-81
2022/11/09 00:08:00;;;;;;;3.25;2.30;;;;;;;10.97;99.90;100272.22;4876081;29;20037;-81
2022/11/09 00:10:29;;;;;;;3.05;2.38;;;;;;;10.87;100.00;100276.91;4853222;29;20072;-82
2022/11/09 00:12:56;;;;;;;4.50;2.80;;;;;;;10.93;99.25;100275.84;4865536;29;20044;-81
2022/11/09 00:15:23;;;;;;;3.00;2.33;;;;;;;10.88;99.25;100275.13;4847872;29;20047;-83
2022/11/09 00:17:50;;;;;;;4.20;2.13;;;;;;;10.89;100.00;100272.44;4864091;29;20044;-82
2022/11/09 00:20:16;;;;;;;3.67;2.55;;;;;;;10.83;100.00;100266.44;4885178;29;20189;-80
2022/11/09 00:22:47;;;;;;;3.20;2.40;;;;;;;10.80;100.00;100264.75;4854607;29;20087;-82
2022/11/09 00:25:14;;;;;;;4.07;2.55;;;;;;;10.81;100.00;100270.91;4867844;29;20097;-82
2022/11/09 00:27:41;;;;;;;3.05;2.03;;;;;;;10.76;100.00;100263.09;4865568;29;20097;-81
2022/11/09 00:30:11;;;;;;;3.03;2.00;;;;;;;10.85;100.00;100264.66;4851193;29;20059;-81
2022/11/09 00:32:38;;;;;;;3.58;2.20;;;;;;;10.88;100.00;100268.06;4847924;29;20056;-83
2022/11/09 00:35:05;;;;;;;4.03;2.50;;;;;;;10.81;100.00;100262.97;4865162;29;20120;-81
2022/11/09 00:37:32;;;;;;;3.08;2.00;;;;;;;10.83;100.00;100269.09;4864341;29;20096;-82
2022/11/09 00:39:58;;;;;;;2.47;2.03;;;;;;;10.85;100.00;100259.34;4851445;29;20045;-82
2022/11/09 00:42:25;;;;;;;3.72;2.10;;;;;;;10.76;100.00;100256.94;4866331;29;20115;-82
2022/11/09 00:44:52;;;;;;;3.47;2.42;;;;;;;10.81;100.00;100255.06;4866457;29;20139;-81
2022/11/09 00:47:19;;;;;;;3.05;2.17;;;;;;;10.77;100.00;100256.94;4877012;29;20045;-81
2022/11/09 00:49:45;;;;;;;3.88;2.45;;;;;;;10.74;100.00;100257.00;4878329;29;20045;-80
2022/11/09 00:52:12;;;;;;;4.00;2.53;;;;;;;10.82;100.00;100256.78;4852067;29;20461;-83
2022/11/09 00:54:39;;;;;;;4.75;2.20;;;;;;;10.78;100.00;100249.88;4846433;29;20041;-82
2022/11/09 00:57:05;;;;;;;4.25;2.72;;;;;;;10.81;100.00;100252.41;4871473;29;20100;-80
2022/11/09 00:59:32;;;;;;;2.65;2.15;;;;;;;10.84;100.00;100260.25;4874964;29;20044;-82
2022/11/09 01:01:59;;;;;;;2.78;2.03;;;;;;;10.69;100.00;100259.78;4880980;29;20072;-81
2022/11/09 01:04:25;;;;;;;4.25;2.58;;;;;;;10.68;100.00;100249.25;4847293;29;20045;-82
2022/11/09 01:06:52;;;;;;;3.22;2.38;;;;;;;10.83;100.00;100259.38;4852991;29;20495;-82
2022/11/09 01:09:19;;;;;;;4.70;2.67;;;;;;;10.78;100.00;100247.22;4849367;29;20045;-83
2022/11/09 01:11:45;;;;;;;3.97;2.05;;;;;;;10.69;100.00;100248.34;4866273;29;20052;-82
2022/11/09 01:14:12;;;;;;;5.20;2.47;;;;;;;10.73;100.00;100252.63;4865222;29;20041;-82
2022/11/09 01:16:39;;;;;;;3.38;2.20;;;;;;;10.68;100.00;100241.34;4858550;29;20073;-83
2022/11/09 01:19:05;;;;;;;3.90;2.40;;;;;;;10.64;100.00;100240.53;4864186;29;20045;-80
2022/11/09 01:21:32;;;;;;;3.05;2.15;;;;;;;10.60;100.00;100238.91;4833894;29;20053;-82
2022/11/09 01:24:00;;;;;;;4.25;2.35;;;;;;;10.69;100.00;100238.63;4855565;29;20047;-82
2022/11/09 01:26:27;;;;;;;3.05;2.30;;;;;;;10.66;100.00;100240.47;4896295;29;20044;-81
2022/11/09 01:28:53;;;;;;;3.38;2.60;;;;;;;10.60;100.00;100235.38;4867217;29;20037;-81
2022/11/09 01:31:21;;;;;;;3.97;2.40;;;;;;;10.70;100.00;100236.88;4851445;29;20060;-82
2022/11/09 01:33:48;;;;;;;4.50;2.33;;;;;;;10.59;100.00;100231.00;4863199;29;20119;-81
2022/11/09 01:36:18;;;;;;;3.10;2.60;;;;;;;10.50;100.00;100233.88;4851621;29;20048;-82
2022/11/09 01:38:45;;;;;;;3.05;2.05;;;;;;;10.64;100.00;100231.75;4879815;29;20041;-82
2022/11/09 01:41:20;;;;;;;4.72;2.80;;;;;;;10.49;100.00;100230.38;4894637;29;20053;-82
2022/11/09 01:44:13;;;;;;;3.67;2.50;;;;;;;10.46;100.00;100227.81;4879918;29;20681;-81
2022/11/09 01:46:42;;;;;;;2.90;2.13;;;;;;;10.47;100.00;100220.78;4857229;29;20174;-82
2022/11/09 01:49:19;;;;;;;3.40;2.35;;;;;;;10.42;100.00;100211.22;4882218;29;20041;-82
2022/11/09 01:51:55;;;;;;;3.28;2.20;;;;;;;10.53;100.00;100213.56;4883111;29;20450;-82
2022/11/09 01:54:26;;;;;;;2.95;2.25;;;;;;;10.46;100.00;100211.97;4859530;29;20089;-81
2022/11/09 01:56:54;;;;;;;3.60;2.20;;;;;;;10.40;100.00;100222.69;4854751;23;20391;31
2022/11/09 01:59:26;;;;;;;3.70;2.55;;;;;;;10.46;100.00;100226.97;4835759;29;20052;-84
2022/11/09 02:01:53;;;;;;;3.15;2.30;;;;;;;10.50;100.00;100216.25;4838649;29;20056;-84
2022/11/09 02:04:23;;;;;;;3.17;2.38;;;;;;;10.52;100.00;100218.88;4831995;29;20518;-84
2022/11/09 02:06:50;;;;;;;3.75;2.13;;;;;;;10.40;100.00;100225.34;4834445;29;20062;-84
2022/11/09 02:09:26;;;;;;;3.80;2.45;;;;;;;10.39;100.00;100215.69;4861251;29;20049;-84
2022/11/09 02:11:53;;;;;;;4.20;2.53;;;;;;;10.30;100.00;100211.53;4850065;29;20048;-84
2022/11/09 02:14:21;;;;;;;3.20;2.08;;;;;;;10.36;100.00;100215.78;4833922;29;20053;-85
2022/11/09 02:16:48;;;;;;;3.13;2.20;;;;;;;10.27;100.00;100213.38;4850317;29;20041;-83
2022/11/09 02:19:15;;;;;;;4.38;2.35;;;;;;;10.20;100.00;100209.13;4832570;29;20041;-84
2022/11/09 02:21:42;;;;;;;2.92;2.40;;;;;;;10.19;100.00;100203.00;4846920;29;20040;-87
2022/11/09 02:24:08;;;;;;;3.47;2.75;;;;;;;10.10;100.00;100204.09;4849811;29;20113;-86
2022/11/09 02:26:44;;;;;;;4.70;2.10;;;;;;;10.04;100.00;100204.25;4850960;29;20053;-85
2022/11/09 02:29:13;;;;;;;2.97;2.30;;;;;;;9.99;100.00;100214.03;4840102;29;20037;-85
2022/11/09 02:31:44;;;;;;;3.28;2.40;;;;;;;9.97;100.00;100215.84;4853078;29;20040;-86
2022/11/09 02:34:13;;;;;;;4.00;2.42;;;;;;;9.84;100.00;100211.81;4836085;29;20074;-87
2022/11/09 02:36:42;;;;;;;3.58;2.45;;;;;;;9.86;100.00;100199.44;4846140;29;20037;-84
2022/11/09 02:39:09;;;;;;;3.50;2.30;;;;;;;9.77;100.00;100195.25;4833371;29;20057;-85
2022/11/09 02:41:43;;;;;;;3.67;2.20;;;;;;;9.93;100.00;100195.75;4841937;29;20052;-84
2022/11/09 02:44:10;;;;;;;3.45;2.45;;;;;;;9.81;100.00;100191.63;4840963;29;20044;-84
2022/11/09 02:46:36;;;;;;;3.60;2.47;;;;;;;9.66;100.00;100199.91;4849055;29;20443;-85
2022/11/09 02:49:04;;;;;;;3.75;2.45;;;;;;;9.58;100.00;100207.13;4872447;29;20097;-86
2022/11/09 02:51:31;;;;;;;3.17;2.25;;;;;;;9.53;100.00;100202.00;4836093;29;20537;-86
2022/11/09 02:53:57;;;;;;;4.07;2.40;;;;;;;9.62;100.00;100202.66;4834256;29;20053;-84
2022/11/09 02:56:24;;;;;;;4.85;2.63;;;;;;;9.54;100.00;100192.31;4839140;29;20060;-83
2022/11/09 02:58:51;;;;;;;4.50;2.90;;;;;;;9.49;100.00;100183.63;4843518;29;20037;-85
2022/11/09 03:01:17;;;;;;;10.63;5.40;;;;;;;9.43;100.00;100191.69;4878211;29;20507;-86
2022/11/09 03:03:44;;;;;;;6.78;3.65;;;;;;;9.36;100.00;100190.97;4826699;29;20053;-84
2022/11/09 03:06:11;;;;;;;5.53;3.08;;;;;;;9.30;100.00;100185.81;4820015;29;20464;-84
2022/11/09 03:08:37;;;;;;;3.88;2.65;;;;;;;9.23;100.00;100187.72;4835558;29;20514;-85
2022/11/09 03:11:05;;;;;;;4.20;2.55;;;;;;;9.21;100.00;100200.09;4854151;29;20052;-84
2022/11/09 03:13:32;;;;;;;3.78;2.50;;;;;;;9.25;100.00;100193.00;4860093;29;20574;-86
2022/11/09 03:16:07;;;;;;;4.65;2.28;;;;;;;9.24;100.00;100202.63;4851560;29;20052;-84
2022/11/09 03:18:33;;;;;;;4.85;2.70;;;;;;;9.30;100.00;100199.00;4851851;29;20041;-85
2022/11/09 03:21:04;;;;;;;4.57;2.35;;;;;;;9.23;100.00;100197.41;4829801;29;20045;-84
2022/11/09 03:23:31;;;;;;;2.88;2.22;;;;;;;9.18;100.00;100201.94;4825142;29;20049;-85
2022/11/09 03:25:57;;;;;;;3.35;2.58;;;;;;;9.32;100.00;100205.97;4848476;29;20053;-87
2022/11/09 03:28:24;;;;;;;6.35;2.40;;;;;;;9.30;100.00;100217.47;4859260;29;20044;-84
2022/11/09 03:30:51;;;;;;;2.90;2.22;;;;;;;9.22;100.00;100214.13;4850859;29;20168;-84
2022/11/09 03:33:18;;;;;;;4.50;2.40;;;;;;;9.25;100.00;100206.16;4832477;29;20037;-84
2022/11/09 03:35:45;;;;;;;4.22;2.80;;;;;;;9.27;100.00;100214.91;4849639;29;20476;-85
2022/11/09 03:38:12;;;;;;;2.95;2.28;;;;;;;9.19;100.00;100201.88;4847947;29;21779;-84
2022/11/09 03:40:38;;;;;;;4.22;2.45;;;;;;;9.20;100.00;100198.34;4833868;29;20046;-84
2022/11/09 03:43:05;;;;;;;3.83;2.67;;;;;;;9.22;100.00;100196.53;4829667;29;20041;-84
2022/11/09 03:45:32;;;;;;;2.90;2.35;;;;;;;9.20;100.00;100187.81;4850822;29;20037;-85
2022/11/09 03:47:59;;;;;;;4.82;2.65;;;;;;;9.17;100.00;100185.25;4836821;29;20052;-84
2022/11/09 03:50:27;;;;;;;3.47;2.30;;;;;;;9.17;100.00;100190.53;4846022;29;20104;-84
2022/11/09 03:52:54;;;;;;;4.30;2.70;;;;;;;9.14;100.00;100181.78;4826816;29;20064;-84
2022/11/09 03:55:21;;;;;;;3.78;2.67;;;;;;;9.21;100.00;100191.31;4851601;29;20045;-85
2022/11/09 03:57:48;;;;;;;6.45;2.30;;;;;;;9.24;100.00;100193.88;4849948;29;20052;-84
2022/11/09 04:00:17;;;;;;;6.70;2.90;;;;;;;9.18;100.00;100197.53;4852548;29;20055;-84
2022/11/09 04:02:44;;;;;;;3.65;2.30;;;;;;;9.31;100.00;100195.47;4836166;29;20049;-83
2022/11/09 04:05:11;;;;;;;3.63;2.20;;;;;;;9.20;100.00;100200.97;4845641;29;20053;-85
2022/11/09 04:07:38;;;;;;;3.83;2.70;;;;;;;9.23;100.00;100207.94;4834268;29;20077;-84
2022/11/09 04:10:06;;;;;;;5.45;2.60;;;;;;;9.23;100.00;100206.19;4849898;29;20049;-85
2022/11/09 04:12:32;;;;;;;4.70;2.43;;;;;;;9.15;100.00;100215.16;4867197;29;20049;-84
2022/11/09 04:14:59;;;;;;;4.10;2.60;;;;;;;9.18;100.00;100205.44;4841973;29;20041;-85
2022/11/09 04:17:26;;;;;;;4.05;2.63;;;;;;;9.25;100.00;100206.16;4844150;29;20060;-83
2022/11/09 04:19:52;;;;;;;3.33;2.50;;;;;;;9.30;100.00;100209.56;4849676;29;20045;-84
2022/11/09 04:22:19;;;;;;;3.55;2.30;;;;;;;9.28;100.00;100209.59;4837137;29;20673;-84
2022/11/09 04:24:45;;;;;;;3.80;3.08;;;;;;;9.27;100.00;100210.50;4878938;29;20491;-83
2022/11/09 04:27:12;;;;;;;3.38;2.58;;;;;;;9.29;100.00;100215.72;4833746;29;20073;-84
2022/11/09 04:29:39;;;;;;;4.22;2.13;;;;;;;9.38;100.00;100220.78;4881540;29;20060;-84
2022/11/09 04:32:06;;;;;;;3.80;2.67;;;;;;;9.41;100.00;100217.22;4853602;29;20085;-84
2022/11/09 04:34:33;;;;;;;4.10;2.50;;;;;;;9.45;100.00;100222.38;4828431;29;20060;-85
2022/11/09 04:36:59;;;;;;;3.47;2.30;;;;;;;9.51;100.00;100219.63;4845152;29;20052;-84
2022/11/09 04:39:26;;;;;;;3.35;2.40;;;;;;;9.55;100.00;100223.91;4834576;29;20050;-85
2022/11/09 04:41:53;;;;;;;4.68;2.55;;;;;;;9.56;100.00;100217.72;4832695;29;20049;-84
2022/11/09 04:44:19;;;;;;;3.70;2.50;;;;;;;9.64;100.00;100216.69;4848541;29;20045;-84
2022/11/09 04:46:46;;;;;;;4.20;2.70;;;;;;;9.63;100.00;100210.53;4846840;29;20052;-84
2022/11/09 04:49:13;;;;;;;3.20;2.45;;;;;;;9.66;100.00;100218.38;4832631;29;20127;-84
2022/11/09 04:51:39;;;;;;;5.28;2.47;;;;;;;9.64;100.00;100214.03;4835890;29;20082;-84
2022/11/09 04:54:06;;;;;;;4.00;2.40;;;;;;;9.65;100.00;100210.50;4851907;29;20052;-84
2022/11/09 04:56:33;;;;;;;4.32;2.88;;;;;;;9.64;100.00;100214.91;4832731;29;20061;-85
2022/11/09 04:58:59;;;;;;;4.38;2.25;;;;;;;9.66;100.00;100221.00;4848876;29;20495;-84
2022/11/09 05:01:26;;;;;;;2.80;2.25;;;;;;;9.68;100.00;100219.22;4847495;29;20049;-84
2022/11/09 05:03:57;;;;;;;3.03;2.35;;;;;;;9.77;100.00;100220.78;4822535;29;20055;-85
2022/11/09 05:06:32;;;;;;;4.88;2.83;;;;;;;9.77;100.00;100202.31;4836886;29;20044;-84
2022/11/09 05:09:03;;;;;;;4.30;2.53;;;;;;;9.73;100.00;100208.53;4848096;29;20068;-85
2022/11/09 05:11:30;;;;;;;4.47;2.45;;;;;;;9.80;100.00;100210.13;4839898;29;20046;-85
2022/11/09 05:13:57;;;;;;;4.03;2.78;;;;;;;9.74;100.00;100203.22;4848136;29;20041;-85
2022/11/09 05:16:24;;;;;;;3.47;2.05;;;;;;;9.86;100.00;100213.50;4829287;29;20046;-85
2022/11/09 05:18:51;;;;;;;3.05;2.20;;;;;;;9.82;100.00;100225.00;4844176;29;20039;-84
2022/11/09 05:21:18;;;;;;;2.92;2.15;;;;;;;9.82;100.00;100214.47;4856629;29;20041;-85
2022/11/09 05:24:01;;;;;;;4.45;2.60;;;;;;;9.81;100.00;100212.72;4865371;29;20068;-84
2022/11/09 05:26:35;;;;;;;3.88;2.58;;;;;;;9.87;100.00;100209.94;4850924;29;20053;-84
2022/11/09 05:29:09;;;;;;;4.22;2.75;;;;;;;10.01;100.00;100208.75;4846777;29;20033;-84
2022/11/09 05:31:37;;;;;;;3.42;2.60;;;;;;;10.04;100.00;100204.25;4848579;29;20049;-84
2022/11/09 05:34:05;;;;;;;2.95;2.10;;;;;;;9.95;100.00;100209.75;4842521;29;20040;-85
2022/11/09 05:36:32;;;;;;;3.50;2.22;;;;;;;9.91;100.00;100216.00;4833795;29;20045;-84
2022/11/09 05:38:59;;;;;;;4.00;2.40;;;;;;;9.99;100.00;100229.88;4857297;29;20102;-83
2022/11/09 05:41:26;;;;;;;3.53;2.63;;;;;;;10.01;100.00;100228.09;4833623;29;20467;-85
2022/11/09 05:43:53;;;;;;;3.47;2.17;;;;;;;10.01;100.00;100225.44;4876167;29;20491;-85
2022/11/09 05:46:20;;;;;;;4.05;2.28;;;;;;;10.16;100.00;100217.13;4831826;29;20045;-85
2022/11/09 05:48:47;;;;;;;5.45;2.70;;;;;;;10.08;100.00;100219.09;4844308;29;20132;-86
2022/11/09 05:51:14;;;;;;;3.55;2.35;;;;;;;10.13;100.00;100229.53;4824470;29;20045;-85
2022/11/09 05:53:40;;;;;;;3.05;2.22;;;;;;;10.08;100.00;100229.66;4818256;29;20521;-85
2022/11/09 05:56:13;;;;;;;4.40;2.53;;;;;;;10.17;100.00;100228.53;4828408;29;20057;-84
2022/11/09 05:58:40;;;;;;;4.30;2.30;;;;;;;10.18;100.00;100227.66;4844836;29;20049;-85
2022/11/09 06:01:13;;;;;;;3.05;2.53;;;;;;;10.19;100.00;100233.81;4832594;29;20050;-85
2022/11/09 06:03:42;;;;;;;3.03;2.35;;;;;;;10.23;100.00;100227.56;4847163;29;20472;-84
2022/11/09 06:06:11;;;;;;;3.05;2.38;;;;;;;10.21;100.00;100234.63;4830810;29;20037;-85
2022/11/09 06:08:38;;;;;;;3.63;2.38;;;;;;;10.25;100.00;100236.31;4838992;29;20029;-85
2022/11/09 06:11:07;;;;;;;3.00;2.35;;;;;;;10.29;100.00;100236.19;4839386;29;20075;-84
2022/11/09 06:13:34;;;;;;;9.80;2.53;;;;;;;10.38;100.00;100235.09;4855284;29;20042;-84
2022/11/09 06:16:02;;;;;;;3.90;2.45;;;;;;;10.52;100.00;100225.03;4843307;29;20105;-85
2022/11/09 06:18:30;;;;;;;3.65;2.30;;;;;;;10.52;100.00;100227.66;4842839;29;20074;-86
2022/11/09 06:20:58;;;;;;;3.15;2.20;;;;;;;10.57;100.00;100224.88;4843188;29;20049;-85
2022/11/09 06:23:25;;;;;;;3.47;2.15;;;;;;;10.64;100.00;100232.59;4824917;29;20164;-85
2022/11/09 06:25:52;;;;;;;3.60;2.33;;;;;;;10.67;100.00;100231.66;4827992;29;20104;-85
2022/11/09 06:28:19;;;;;;;3.50;2.70;;;;;;;10.64;100.00;100239.66;4827847;29;20053;-85
2022/11/09 06:30:46;;;;;;;3.75;2.58;;;;;;;10.55;100.00;100227.56;4813355;29;20061;-85
2022/11/09 06:33:12;;;;;;;3.50;2.50;;;;;;;10.60;100.00;100236.25;4839584;29;20044;-85
2022/11/09 06:35:39;;;;;;;3.35;2.53;;;;;;;10.51;100.00;100232.97;4847869;29;20109;-85
2022/11/09 06:38:06;;;;;;;7.82;3.28;;;;;;;10.71;100.00;100238.59;4843164;29;20041;-85
2022/11/09 06:40:33;;;;;;;3.70;2.40;;;;;;;10.61;100.00;100242.41;4828636;29;20041;-84
2022/11/09 06:43:00;;;;;;;2.90;2.42;;;;;;;10.63;100.00;100241.44;4843545;29;20051;-85
2022/11/09 06:45:28;;;;;;;3.70;2.47;;;;;;;10.68;100.00;100236.03;4845074;29;20097;-86
2022/11/09 06:48:00;;;;;;;4.30;2.47;;;;;;;10.68;100.00;100243.97;4845539;29;20101;-87
2022/11/09 06:50:28;;;;;;;3.88;2.47;;;;;;;10.61;100.00;100243.25;4860703;29;20048;-87
2022/11/09 06:52:57;;;;;;;3.25;2.92;;;;;;;10.68;100.00;100247.47;4866234;29;20051;-86
2022/11/09 06:55:25;;;;;;;3.58;2.38;;;;;;;10.64;100.00;100253.75;4845279;29;20051;-86
2022/11/09 06:57:51;;;;;;;4.45;2.78;;;;;;;10.66;100.00;100246.63;4830272;29;20488;-85
2022/11/09 07:00:19;;;;;;;3.30;2.70;;;;;;;10.64;100.00;100245.81;4845473;29;20037;-85
2022/11/09 07:02:45;;;;;;;3.25;2.20;;;;;;;10.76;100.00;100247.25;4836550;29;20053;-88
2022/11/09 07:05:12;;;;;;;4.68;2.92;;;;;;;10.84;100.00;100258.47;4836132;29;20046;-86
2022/11/09 07:07:38;;;;;;;3.08;2.70;;;;;;;10.76;100.00;100246.38;4848848;29;20093;-86
2022/11/09 07:10:06;;;;;;;2.70;2.20;;;;;;;10.76;100.00;100249.88;4848522;29;20507;-86
2022/11/09 07:12:34;;;;;;;4.43;2.70;;;;;;;10.89;100.00;100258.34;4845660;29;20499;-86
2022/11/09 07:15:02;;;;;;;3.72;2.60;;;;;;;10.87;100.00;100266.31;4835161;29;20132;-86
2022/11/09 07:17:31;;;;;;;4.53;2.38;;;;;;;10.93;100.00;100267.91;4848844;29;20059;-86
2022/11/09 07:19:58;;;;;;;4.72;2.42;;;;;;;10.98;100.00;100264.22;4844296;29;20060;-87
2022/11/09 07:22:26;;;;;;;3.45;2.33;;;;;;;11.04;100.00;100273.78;4834007;29;20068;-85
2022/11/09 07:24:54;;;;;;;3.03;2.28;;;;;;;11.23;100.00;100269.69;4833422;29;20049;-86
2022/11/09 07:27:21;;;;;;;4.45;2.40;;;;;;;11.22;100.00;100262.66;4854532;29;20045;-85
2022/11/09 07:29:53;;;;;;;2.95;2.20;;;;;;;11.27;100.00;100266.06;4834883;29;20041;-85
2022/11/09 07:32:20;;;;;;;4.20;2.65;;;;;;;11.36;100.00;100269.34;4848968;29;20049;-85
2022/11/09 07:35:07;;;;;;;5.78;2.70;;;;;;;11.46;100.00;100260.22;4853963;29;20180;-85
2022/11/09 07:37:34;;;;;;;3.15;2.22;;;;;;;11.37;100.00;100258.72;4847458;29;20056;-86
2022/11/09 07:40:01;;;;;;;3.85;2.72;;;;;;;11.55;100.00;100262.56;4833105;29;20065;-85
2022/11/09 07:42:27;;;;;;;3.30;2.53;;;;;;;11.50;100.00;100261.81;4833706;29;20105;-85
2022/11/09 07:44:54;;;;;;;3.38;2.55;;;;;;;11.48;100.00;100267.16;4838596;29;20105;-86
2022/11/09 07:47:21;;;;;;;3.53;2.45;;;;;;;11.51;100.00;100263.56;4832467;29;20062;-86
2022/11/09 07:49:48;;;;;;;5.07;2.80;;;;;;;11.55;100.00;100262.56;4849430;29;20093;-86
2022/11/09 07:52:15;;;;;;;3.72;2.25;;;;;;;11.59;100.00;100260.69;4849694;29;20139;-86
2022/11/09 07:54:42;;;;;;;5.78;2.70;;;;;;;11.69;100.00;100257.72;4865150;29;20065;-86
2022/11/09 07:57:12;;;;;;;4.68;3.05;;;;;;;11.74;100.00;100249.63;4849953;29;20131;-86
2022/11/09 07:59:39;;;;;;;4.65;2.90;;;;;;;11.87;100.00;100251.00;4834148;29;20495;-84
2022/11/09 08:02:07;;;;;;;2.30;2.10;;;;;;;11.97;100.00;100248.91;4865319;29;20468;-85
2022/11/09 08:04:35;;;;;;;3.30;2.40;;;;;;;12.01;100.00;100246.09;4940300;23;20037;-80
2022/11/09 08:07:02;;;;;;;3.50;2.20;;;;;;;12.12;100.00;100243.13;4859961;29;20102;-81
2022/11/09 08:09:28;;;;;;;3.85;2.70;;;;;;;12.17;100.00;100249.13;4814320;29;20046;-83
2022/11/09 08:11:55;;;;;;;3.15;2.30;;;;;;;12.23;100.00;100246.25;4850493;29;20045;-83
2022/11/09 08:14:22;;;;;;;4.43;2.40;;;;;;;12.43;100.00;100239.41;4856901;29;20042;-83
2022/11/09 08:16:49;;;;;;;4.65;2.63;;;;;;;12.42;100.00;100242.97;4857263;29;20173;-81
2022/11/09 08:19:15;;;;;;;2.83;2.53;;;;;;;12.53;100.00;100230.25;4825980;29;20049;-83
2022/11/09 08:21:42;;;;;;;5.03;2.55;;;;;;;12.61;100.00;100233.47;4843154;29;20113;-82
2022/11/09 08:24:08;;;;;;;3.55;2.30;;;;;;;12.55;100.00;100228.41;4843954;29;20431;-83
2022/11/09 08:26:35;;;;;;;3.67;2.40;;;;;;;12.67;100.00;100230.59;4831426;29;20132;-83
2022/11/09 08:29:02;;;;;;;4.93;2.40;;;;;;;12.62;100.00;100238.72;4840488;29;20081;-84
2022/11/09 08:31:29;;;;;;;3.88;2.45;;;;;;;12.60;100.00;100244.97;4841725;29;20496;-83
2022/11/09 08:33:56;;;;;;;3.45;2.63;;;;;;;12.62;100.00;100240.53;4811708;29;20694;-82
2022/11/09 08:36:25;;;;;;;3.63;2.20;;;;;;;12.61;100.00;100236.09;4842934;29;20254;-83
2022/11/09 08:38:51;;;;;;;4.38;3.28;;;;;;;12.53;100.00;100235.53;4856394;29;20041;-81
2022/11/09 08:41:18;;;;;;;6.05;3.42;;;;;;;12.54;100.00;100229.31;4841697;29;20045;-83
2022/11/09 08:43:45;;;;;;;5.38;2.90;;;;;;;12.42;100.00;100243.84;4825106;29;20201;-82
2022/11/09 08:46:11;;;;;;;4.95;2.70;;;;;;;12.30;100.00;100253.09;4839584;29;20047;-82
2022/11/09 08:48:38;;;;;;;4.65;3.03;;;;;;;12.34;100.00;100248.53;4825293;29;20049;-83
2022/11/09 08:51:05;;;;;;;4.18;2.63;;;;;;;12.22;100.00;100259.56;4856306;29;20050;-83
2022/11/09 08:53:31;;;;;;;2.97;2.60;;;;;;;12.22;100.00;100256.91;4858349;29;20106;-83
2022/11/09 08:55:58;;;;;;;5.50;2.70;;;;;;;12.21;100.00;100257.84;4854583;29;20492;-83
2022/11/09 08:58:25;;;;;;;4.05;2.80;;;;;;;12.05;100.00;100262.78;4856904;29;20154;-83
2022/11/09 09:00:51;;;;;;;3.70;2.55;;;;;;;12.06;100.00;100272.44;4835444;29;20103;-82
2022/11/09 09:03:18;;;;;;;5.47;4.35;;;;;;;12.14;100.00;100285.44;4828449;29;20101;-83
2022/11/09 09:05:45;;;;;;;6.00;4.40;;;;;;;11.99;100.00;100292.94;4837963;29;20134;-82
2022/11/09 09:08:14;;;;;;;4.15;3.05;;;;;;;11.96;100.00;100295.72;4856972;29;20037;-81
2022/11/09 09:10:41;;;;;;;4.57;3.50;;;;;;;11.98;100.00;100299.16;4837572;29;20099;-82
2022/11/09 09:13:08;;;;;;;3.88;2.55;;;;;;;12.08;100.00;100297.09;4839728;29;20496;-82
2022/11/09 09:15:35;;;;;;;3.50;2.90;;;;;;;11.97;100.00;100307.16;4839434;29;20046;-81
2022/11/09 09:18:02;;;;;;;4.95;3.35;;;;;;;11.94;100.00;100305.50;4824626;29;20080;-83
2022/11/09 09:20:29;;;;;;;7.53;3.65;;;;;;;12.01;100.00;100308.78;4840184;29;20110;-82
2022/11/09 09:22:59;;;;;;;4.20;3.00;;;;;;;12.08;100.00;100299.72;4847024;29;20451;-82
2022/11/09 09:25:27;;;;;;;5.80;2.70;;;;;;;12.10;100.00;100295.25;4848468;29;20113;-82
2022/11/09 09:27:53;;;;;;;3.42;3.00;;;;;;;12.15;100.00;100303.06;4842393;29;20560;-82
2022/11/09 09:30:20;;;;;;;4.85;3.13;;;;;;;12.18;100.00;100290.56;4841520;29;20465;-82
2022/11/09 09:32:47;;;;;;;3.45;2.75;;;;;;;12.20;100.00;100306.44;4827281;29;20041;-81
2022/11/09 09:35:13;;;;;;;3.90;3.17;;;;;;;12.23;100.00;100307.19;4823339;29;20449;-81
2022/11/09 09:37:42;;;;;;;4.97;3.45;;;;;;;12.29;100.00;100306.13;4811271;29;20572;-82
2022/11/09 09:40:23;;;;;;;4.53;3.13;;;;;;;12.36;100.00;100297.94;4850445;29;20041;-83
2022/11/09 09:42:52;;;;;;;4.90;2.58;;;;;;;12.40;100.00;100296.88;4840674;29;20050;-82
2022/11/09 09:45:22;;;;;;;4.03;2.75;;;;;;;12.56;100.00;100307.84;4811554;29;20495;-81
2022/11/09 09:47:58;;;;;;;3.78;3.00;;;;;;;12.60;100.00;100309.44;4827118;29;20503;-82
2022/11/09 09:50:31;;;;;;;4.03;2.60;;;;;;;12.62;100.00;100309.44;4827310;29;20544;-82
2022/11/09 09:53:10;;;;;;;3.53;2.58;;;;;;;12.62;100.00;100304.97;4842668;29;20484;-83
2022/11/09 09:55:55;;;;;;;3.28;2.53;;;;;;;12.74;100.00;100311.63;4841741;29;20041;-83
2022/11/09 09:58:45;;;;;;;3.10;2.28;;;;;;;12.91;100.00;100313.69;4857508;29;20094;-82
2022/11/09 10:01:20;;;;;;;3.83;2.53;;;;;;;12.95;100.00;100304.72;4845748;29;20058;-82
2022/11/09 10:03:47;;;;;;;4.25;2.75;;;;;;;13.09;100.00;100307.72;4824246;29;20444;-82
2022/11/09 10:06:27;;;;;;;4.88;2.30;;;;;;;13.22;100.00;100309.06;4820880;29;20041;-82
2022/11/09 10:09:02;;;;;;;4.25;2.70;;;;;;;13.33;100.00;100302.47;4856818;29;20514;-81
2022/11/09 10:11:50;;;;;;;3.45;2.50;;;;;;;13.36;100.00;100305.00;4857389;29;20049;-82
2022/11/09 10:14:32;;;;;;;3.50;2.53;;;;;;;13.57;100.00;100303.34;4842095;29;20045;-82
2022/11/09 10:17:15;;;;;;;4.43;2.97;;;;;;;13.74;100.00;100303.53;4869471;29;20411;-83
2022/11/09 10:20:20;;;;;;;2.97;2.38;;;;;;;13.83;100.00;100305.84;4823159;29;20099;-82
2022/11/09 10:23:04;;;;;;;3.75;2.40;;;;;;;13.88;100.00;100311.84;4825028;29;20460;-82
2022/11/09 10:25:32;;;;;;;4.85;3.45;;;;;;;13.92;100.00;100313.44;4839758;29;20117;-83
2022/11/09 10:28:22;;;;;;;3.47;2.58;;;;;;;14.03;100.00;100315.66;4834726;29;20050;-82
2022/11/09 10:30:49;;;;;;;4.03;2.28;;;;;;;14.02;100.00;100314.78;4824704;29;20109;-83
2022/11/09 10:33:19;;;;;;;3.65;2.70;;;;;;;14.05;100.00;100306.72;4822476;29;20084;-82
2022/11/09 10:35:56;;;;;;;3.45;2.30;;;;;;;14.16;100.00;100308.06;4842560;29;20491;-82
2022/11/09 10:38:36;;;;;;;4.32;2.38;;;;;;;14.15;100.00;100314.31;4840910;29;20057;-82
2022/11/09 10:41:36;;;;;;;4.90;2.40;;;;;;;14.22;100.00;100308.69;4821982;29;20079;-84
2022/11/09 10:44:03;;;;;;;3.15;2.40;;;;;;;14.25;100.00;100311.22;4839963;29;20057;-84
2022/11/09 10:47:08;;;;;;;5.05;2.13;;;;;;;14.17;100.00;100309.78;4824357;29;20504;-83
2022/11/09 10:49:36;;;;;;;;;;;;;;;14.43;100.00;100304.25;4846865;29;20049;-83
2022/11/09 10:52:04;;;;;;;3.13;2.45;;;;;;;14.57;100.00;100293.97;4827812;29;19951;-83
2022/11/09 10:54:34;;;;;;;3.92;2.88;;;;;;;14.73;99.71;100295.97;4832166;29;20106;-83
2022/11/09 10:57:21;;;;;;;3.53;2.13;;;;;;;14.84;98.66;100304.31;4842384;29;20128;-83
2022/11/09 10:59:51;;;;;;;4.20;2.50;;;;;;;14.92;97.42;100292.41;4835821;29;20624;-84
2022/11/09 11:02:24;;;;;;;3.60;1.95;;;;;;;15.05;96.43;100291.84;4841301;29;20045;-83
2022/11/09 11:04:55;;;;;;;3.08;1.90;;;;;;;15.08;97.26;100286.41;4829465;29;20480;-84
2022/11/09 11:07:24;;;;;;;3.58;2.35;;;;;;;15.27;96.59;100286.44;4821113;29;20049;-84
2022/11/09 11:09:50;;;;;;;3.35;2.20;;;;;;;15.39;95.37;100283.22;4823939;29;20512;-84
2022/11/09 11:12:21;;;;;;;4.10;2.40;;;;;;;15.59;94.41;100272.50;4809075;29;20057;-82
2022/11/09 11:14:48;;;;;;;3.13;2.05;;;;;;;15.52;94.45;100273.72;4836010;29;20041;-83
2022/11/09 11:17:22;;;;;;;3.33;2.30;;;;;;;15.60;92.62;100271.56;4826624;29;20046;-83
2022/11/09 11:19:48;;;;;;;3.55;1.95;;;;;;;15.57;93.63;100270.84;4824882;29;20482;-80
2022/11/09 11:22:23;;;;;;;4.80;2.53;;;;;;;15.58;92.08;100264.59;4822527;29;20072;-81
2022/11/09 11:24:58;;;;;;;4.20;2.47;;;;;;;15.54;93.59;100271.84;4841516;29;20049;-81
2022/11/09 11:27:29;;;;;;;2.53;2.00;;;;;;;15.73;92.61;100272.75;4807911;29;20061;-83